Time;durP1;ratioP1;P1;durP2;ratioP2;P2;SDS_P1;SDS_P2;PMS_P1;PMS_P2;Temp;Humidity;BMP_temperature;BMP_pressure;BME280_temperature;BME280_humidity;BME280_pressure;Samples;Min_cycle;Max_cycle;Signal;HPM_P1;HPM_P2
2022/04/25 00:01:53;;;;;;;13.77;10.07;;;;;;;16.11;100.00;99910.77;1663975;86;21313;-68
2022/04/25 00:04:20;;;;;;;14.90;10.63;;;;;;;15.88;100.00;99914.16;1656388;86;21316;-66
2022/04/25 00:06:49;;;;;;;13.87;10.77;;;;;;;15.83;100.00;99916.13;1657591;86;21224;-61
2022/04/25 00:09:17;;;;;;;15.00;11.43;;;;;;;15.75;100.00;99918.58;1676708;85;21319;-58
2022/04/25 00:11:46;;;;;;;17.93;11.27;;;;;;;15.72;100.00;99920.36;1677187;85;21059;-59
2022/04/25 00:14:14;;;;;;;15.03;10.73;;;;;;;15.64;100.00;99918.52;1676383;85;22456;-58
2022/04/25 00:16:43;;;;;;;15.60;11.67;;;;;;;15.50;100.00;99923.17;1675866;85;21957;-60
2022/04/25 00:19:11;;;;;;;15.20;12.20;;;;;;;15.53;100.00;99922.70;1676923;85;21284;-61
2022/04/25 00:21:38;;;;;;;12.87;10.57;;;;;;;15.49;100.00;99924.17;1676911;85;21660;-59
2022/04/25 00:24:06;;;;;;;14.40;10.87;;;;;;;15.47;100.00;99924.92;1676986;85;21883;-68
2022/04/25 00:26:35;;;;;;;13.83;11.50;;;;;;;15.42;100.00;99930.03;1676436;85;21621;-60
2022/04/25 00:29:04;;;;;;;20.47;14.17;;;;;;;15.46;100.00;99928.59;1676791;85;21094;-58
2022/04/25 00:31:31;;;;;;;17.90;14.80;;;;;;;15.52;100.00;99931.10;1676794;85;21454;-58
2022/04/25 00:34:01;;;;;;;17.37;13.73;;;;;;;15.56;100.00;99932.77;1676401;85;21209;-61
2022/04/25 00:36:29;;;;;;;15.47;13.23;;;;;;;15.57;100.00;99934.39;1676304;85;22035;-60
2022/04/25 00:38:57;;;;;;;15.53;12.90;;;;;;;15.54;100.00;99934.83;1676513;85;21484;-61
2022/04/25 00:41:26;;;;;;;18.83;14.87;;;;;;;15.46;100.00;99937.27;1676863;85;21483;-59
2022/04/25 00:43:56;;;;;;;15.97;13.77;;;;;;;15.50;100.00;99937.62;1676625;85;21292;-62
2022/04/25 00:46:26;;;;;;;22.20;13.83;;;;;;;15.42;100.00;99940.53;1676592;85;21325;-67
2022/04/25 00:48:54;;;;;;;15.70;11.23;;;;;;;15.43;100.00;99946.09;1676892;85;21326;-59
2022/04/25 00:51:24;;;;;;;15.93;11.93;;;;;;;15.45;100.00;99948.77;1658224;86;21214;-59
2022/04/25 00:53:53;;;;;;;14.33;10.77;;;;;;;15.41;100.00;99940.25;1658175;86;21124;-69
2022/04/25 00:56:21;;;;;;;16.03;12.13;;;;;;;15.25;100.00;99939.84;1676700;85;22541;-59
2022/04/25 00:58:49;;;;;;;14.87;12.10;;;;;;;15.17;100.00;99936.72;1677086;85;21131;-61
2022/04/25 01:01:16;;;;;;;15.83;13.17;;;;;;;15.16;100.00;99934.62;1677124;85;21256;-59
2022/04/25 01:03:45;;;;;;;18.63;13.20;;;;;;;15.20;100.00;99929.73;1676509;85;21556;-70
2022/04/25 01:06:14;;;;;;;14.80;12.50;;;;;;;15.19;100.00;99942.05;1675544;85;21211;-61
2022/04/25 01:08:43;;;;;;;17.07;13.67;;;;;;;15.37;100.00;99941.20;1676755;85;21723;-60
2022/04/25 01:11:12;;;;;;;20.57;13.30;;;;;;;15.27;100.00;99935.70;1676707;85;21007;-61
2022/04/25 01:13:40;;;;;;;17.60;13.67;;;;;;;15.26;100.00;99938.02;1676927;85;21308;-70
2022/04/25 01:16:07;;;;;;;17.37;15.17;;;;;;;15.31;100.00;99932.92;1657428;86;21218;-61
2022/04/25 01:18:35;;;;;;;17.17;13.70;;;;;;;15.66;100.00;99937.02;1658278;86;21344;-63
2022/04/25 01:21:02;;;;;;;15.60;12.73;;;;;;;15.87;100.00;99942.77;1677511;85;21015;-58
2022/04/25 01:29:03;;;;;;;19.57;15.17;;;;;;;15.90;100.00;99923.92;1677307;85;21223;-61
2022/04/25 01:31:32;;;;;;;18.37;14.20;;;;;;;15.77;100.00;99929.67;1676637;85;21200;-64
2022/04/25 01:34:01;;;;;;;15.23;11.23;;;;;;;15.97;100.00;99927.25;1677438;85;22350;-61
2022/04/25 01:36:28;;;;;;;15.67;13.40;;;;;;;15.97;100.00;99925.94;1677423;85;21288;-60
2022/04/25 01:38:57;;;;;;;15.73;12.80;;;;;;;15.98;100.00;99927.53;1677093;85;21266;-60
2022/04/25 01:41:26;;;;;;;15.13;13.53;;;;;;;16.03;100.00;99921.90;1676022;85;21388;-70
2022/04/25 01:43:53;;;;;;;16.23;13.27;;;;;;;15.24;100.00;99919.07;1676804;85;21620;-59
2022/04/25 01:46:21;;;;;;;15.93;12.07;;;;;;;15.08;100.00;99925.22;1676774;85;22145;-59
2022/04/25 01:48:50;;;;;;;17.97;13.53;;;;;;;15.07;100.00;99928.05;1676763;85;21760;-60
2022/04/25 01:51:17;;;;;;;14.03;12.57;;;;;;;15.01;100.00;99924.48;1657539;86;21271;-59
2022/04/25 01:53:45;;;;;;;14.30;12.80;;;;;;;15.06;100.00;99927.25;1676389;85;21294;-59
2022/04/25 01:56:13;;;;;;;13.80;10.77;;;;;;;14.89;100.00;99931.50;1676649;85;21528;-59
2022/04/25 01:58:41;;;;;;;15.80;14.10;;;;;;;15.14;100.00;99938.47;1676800;85;21152;-59
2022/04/25 02:01:09;;;;;;;15.63;12.57;;;;;;;15.26;100.00;99929.62;1676377;85;21306;-71
2022/04/25 02:03:36;;;;;;;13.83;12.20;;;;;;;15.85;100.00;99928.55;1676144;85;22274;-68
2022/04/25 02:06:05;;;;;;;18.00;14.27;;;;;;;15.89;100.00;99929.70;1682624;85;22104;-59
2022/04/25 02:08:34;;;;;;;17.17;13.47;;;;;;;15.94;100.00;99931.13;1682724;85;21899;-59
2022/04/25 02:11:19;;;;;;;16.37;13.07;;;;;;;15.91;100.00;99938.66;1682559;85;21337;-61
2022/04/25 02:13:46;;;;;;;16.33;13.87;;;;;;;15.61;100.00;99943.43;1682887;85;21601;-60
2022/04/25 02:16:15;;;;;;;16.67;14.00;;;;;;;15.76;100.00;99941.22;1682882;85;21330;-61
2022/04/25 02:18:42;;;;;;;17.50;13.30;;;;;;;15.86;100.00;99950.38;1656186;86;21064;-61
2022/04/25 02:21:11;;;;;;;16.17;13.57;;;;;;;15.90;100.00;99949.69;1656018;86;21944;-62
2022/04/25 02:23:38;;;;;;;13.47;11.87;;;;;;;16.17;100.00;99949.28;1663773;86;21244;-62
2022/04/25 02:26:07;;;;;;;11.50;10.30;;;;;;;15.90;100.00;99953.64;1656906;86;21567;-63
2022/04/25 02:28:36;;;;;;;10.53;8.87;;;;;;;15.76;100.00;99962.24;1656990;86;21259;-73
2022/04/25 02:31:04;;;;;;;11.40;9.50;;;;;;;15.65;100.00;99955.13;1663610;86;21296;-62
2022/04/25 02:33:33;;;;;;;10.33;9.27;;;;;;;15.61;100.00;99959.20;1628150;87;21278;-73
2022/04/25 02:36:00;;;;;;;13.03;11.73;;;;;;;15.75;100.00;99951.42;1687666;84;21287;-61
2022/04/25 02:38:28;;;;;;;14.03;11.83;;;;;;;14.80;100.00;99954.58;1687887;84;21384;-61
2022/04/25 02:41:05;;;;;;;17.23;12.23;;;;;;;14.66;100.00;99953.14;1687334;84;21353;-70
2022/04/25 02:43:41;;;;;;;15.87;12.53;;;;;;;14.54;100.00;99956.16;1687070;84;21208;-61
2022/04/25 02:46:10;;;;;;;15.87;13.70;;;;;;;14.64;100.00;99953.05;1687747;84;21353;-61
2022/04/25 02:48:39;;;;;;;17.43;14.67;;;;;;;14.82;100.00;99953.88;1687092;84;21115;-62
2022/04/25 02:51:08;;;;;;;11.10;10.00;;;;;;;14.96;100.00;99946.64;1687519;84;21628;-75
2022/04/25 02:53:35;;;;;;;12.57;11.20;;;;;;;15.21;100.00;99949.70;1687355;84;21398;-62
2022/04/25 02:56:05;;;;;;;9.20;7.57;;;;;;;15.13;100.00;99953.42;1687930;84;21382;-61
2022/04/25 02:58:34;;;;;;;19.03;9.97;;;;;;;15.13;100.00;99956.56;1687001;84;21241;-60
2022/04/25 03:01:04;;;;;;;11.33;8.33;;;;;;;14.98;100.00;99953.00;1687529;84;21358;-61
2022/04/25 03:03:34;;;;;;;12.13;9.10;;;;;;;14.98;100.00;99957.73;1687930;84;22283;-59
2022/04/25 03:06:03;;;;;;;9.97;8.17;;;;;;;14.97;100.00;99969.26;1687515;84;21168;-72
2022/04/25 03:08:30;;;;;;;13.30;8.77;;;;;;;15.26;100.00;99968.21;1687487;84;21438;-62
2022/04/25 03:10:58;;;;;;;10.63;9.57;;;;;;;15.36;100.00;99975.58;1687975;84;21193;-61
2022/04/25 03:13:27;;;;;;;11.37;8.17;;;;;;;15.41;100.00;99975.70;1687631;84;21351;-61
2022/04/25 03:15:55;;;;;;;8.67;7.77;;;;;;;15.68;100.00;99974.88;1687795;84;21313;-62
2022/04/25 03:18:23;;;;;;;8.50;7.70;;;;;;;15.86;100.00;99981.91;1687976;84;21354;-60
2022/04/25 03:20:52;;;;;;;34.97;8.30;;;;;;;16.08;100.00;99979.06;1687585;84;21243;-61
2022/04/25 03:23:20;;;;;;;11.37;8.80;;;;;;;16.23;100.00;99977.31;1687199;84;21285;-60
2022/04/25 03:25:48;;;;;;;9.77;8.50;;;;;;;16.27;100.00;99977.94;1687749;84;21325;-61
2022/04/25 03:28:16;;;;;;;8.50;7.43;;;;;;;16.47;100.00;99972.34;1687320;84;21286;-71
2022/04/25 03:30:46;;;;;;;8.27;6.83;;;;;;;16.75;100.00;99979.59;1687714;84;21785;-60
2022/04/25 03:33:15;;;;;;;13.43;7.60;;;;;;;16.87;100.00;99978.78;1687469;84;21262;-61
2022/04/25 03:35:45;;;;;;;16.23;7.70;;;;;;;17.11;100.00;99972.43;1688110;84;21362;-59
2022/04/25 03:38:13;;;;;;;8.83;7.47;;;;;;;17.11;100.00;99972.43;1687167;84;21552;-65
2022/04/25 03:40:43;;;;;;;7.47;6.50;;;;;;;17.40;100.00;99973.80;1687675;84;21933;-60
2022/04/25 03:43:10;;;;;;;8.07;7.30;;;;;;;17.80;100.00;99980.34;1687493;84;21810;-67
2022/04/25 03:45:41;;;;;;;9.70;6.83;;;;;;;18.08;100.00;99972.92;1687828;84;21708;-60
2022/04/25 03:48:09;;;;;;;12.20;7.97;;;;;;;18.28;100.00;99975.07;1687328;84;21795;-63
2022/04/25 03:50:36;;;;;;;11.60;6.57;;;;;;;18.70;100.00;99981.23;1687684;84;21814;-60
2022/04/25 03:53:08;;;;;;;7.27;6.53;;;;;;;18.70;100.00;99981.23;1687749;84;21085;-69
2022/04/25 03:58:23;;;;;;;8.40;6.07;;;;;;;19.54;100.00;99978.30;1687505;84;21352;-59
2022/04/25 04:00:51;;;;;;;10.13;6.60;;;;;;;20.08;100.00;99984.94;1687473;84;21070;-68
2022/04/25 04:03:18;;;;;;;7.83;6.20;;;;;;;20.61;100.00;99987.73;1687513;84;21023;-60
2022/04/25 04:05:47;;;;;;;6.43;5.80;;;;;;;20.70;97.47;99982.74;1686977;84;21086;-72
2022/04/25 04:08:16;;;;;;;6.77;6.13;;;;;;;20.82;94.09;99982.80;1687984;84;21015;-61
2022/04/25 04:10:44;;;;;;;7.60;6.70;;;;;;;21.32;92.26;99977.97;1688232;84;21678;-59
2022/04/25 04:13:13;;;;;;;6.70;5.80;;;;;;;21.71;90.04;99978.91;1687327;84;21647;-59
2022/04/25 04:15:41;;;;;;;7.63;6.33;;;;;;;22.12;86.36;99979.70;1687705;84;20952;-67
2022/04/25 04:18:10;;;;;;;7.10;6.40;;;;;;;22.93;77.31;99976.16;1687507;84;21026;-59
2022/04/25 04:20:37;;;;;;;7.47;6.57;;;;;;;23.88;69.40;99975.12;1687685;84;21623;-59
2022/04/25 04:23:05;;;;;;;7.07;6.37;;;;;;;24.54;64.26;99976.42;1687075;84;21127;-62
2022/04/25 04:25:34;;;;;;;7.30;6.60;;;;;;;25.62;57.88;99975.92;1687631;84;21014;-60
2022/04/25 04:28:02;;;;;;;8.47;7.33;;;;;;;26.98;53.77;99979.73;1687082;84;21075;-60
2022/04/25 04:30:30;;;;;;;8.07;7.27;;;;;;;27.92;49.61;99977.69;1688052;84;21499;-58
2022/04/25 04:32:58;;;;;;;8.50;7.63;;;;;;;29.11;45.04;99976.16;1687929;84;21265;-59
2022/04/25 04:38:12;;;;;;;8.95;8.10;;;;;;;29.55;39.67;99989.30;1688117;84;21110;-59
2022/04/25 04:40:40;;;;;;;9.48;8.40;;;;;;;29.23;38.39;99995.91;1687350;84;20963;-60
2022/04/25 04:43:08;;;;;;;8.98;8.15;;;;;;;28.77;39.02;99987.02;1688141;84;21015;-58
2022/04/25 04:45:36;;;;;;;8.48;7.65;;;;;;;28.68;38.95;99991.02;1687246;84;21153;-58
2022/04/25 04:48:04;;;;;;;8.30;7.47;;;;;;;29.00;39.41;99989.86;1687940;84;21404;-58
2022/04/25 04:50:31;;;;;;;9.13;8.28;;;;;;;29.57;38.33;99991.66;1687573;84;21011;-62
2022/04/25 04:53:00;;;;;;;8.45;7.35;;;;;;;30.12;37.67;99988.84;1687760;84;21811;-58
2022/04/25 04:55:27;;;;;;;8.03;7.22;;;;;;;30.56;37.46;99988.96;1687298;84;21015;-67
2022/04/25 04:57:58;;;;;;;9.80;8.60;;;;;;;31.24;35.85;99987.01;1687637;84;22149;-58
2022/04/25 05:00:27;;;;;;;7.75;7.05;;;;;;;31.79;35.20;99983.82;1688233;84;20952;-58
2022/04/25 05:02:55;;;;;;;8.35;7.30;;;;;;;33.03;33.08;99982.86;1687783;84;20936;-58
2022/04/25 05:05:22;;;;;;;8.83;6.78;;;;;;;33.10;31.92;99983.86;1687984;84;21039;-68
2022/04/25 05:07:50;;;;;;;7.70;6.90;;;;;;;33.50;31.72;99984.45;1687511;84;21134;-58
2022/04/25 05:10:17;;;;;;;7.50;5.97;;;;;;;33.89;31.16;99984.16;1687756;84;21377;-58
2022/04/25 05:12:53;;;;;;;7.42;6.72;;;;;;;34.43;30.59;99986.87;1687694;84;21056;-65
2022/04/25 05:15:20;;;;;;;7.25;6.40;;;;;;;34.69;29.96;99983.64;1688049;84;21082;-59
2022/04/25 05:17:50;;;;;;;7.67;6.92;;;;;;;35.14;29.37;99982.91;1687171;84;21544;-62
2022/04/25 05:20:20;;;;;;;7.10;6.33;;;;;;;35.57;28.11;99980.50;1688084;84;21070;-58
2022/04/25 05:22:48;;;;;;;10.40;6.30;;;;;;;35.47;27.93;99979.14;1687637;84;21345;-66
2022/04/25 05:25:19;;;;;;;6.37;5.75;;;;;;;35.65;27.48;99980.06;1688024;84;21627;-58
2022/04/25 05:27:49;;;;;;;6.62;5.95;;;;;;;35.60;27.26;99984.42;1686885;84;21004;-58
2022/04/25 05:30:17;;;;;;;6.83;6.20;;;;;;;35.60;27.08;99981.14;1687930;84;21051;-58
2022/04/25 05:32:53;;;;;;;7.00;6.15;;;;;;;35.63;27.62;99983.72;1687545;84;21003;-66
2022/04/25 05:35:23;;;;;;;6.58;5.87;;;;;;;35.84;27.15;99982.77;1656620;86;21186;-67
2022/04/25 05:37:52;;;;;;;7.50;6.25;;;;;;;36.14;26.40;99984.28;1664572;85;22382;-58
2022/04/25 05:40:20;;;;;;;7.00;6.30;;;;;;;35.97;26.44;99985.50;1628615;88;21093;-59
2022/04/25 05:42:48;;;;;;;6.72;6.03;;;;;;;35.88;26.14;99993.65;1687655;84;21024;-59
2022/04/25 05:45:16;;;;;;;6.83;6.10;;;;;;;36.11;26.31;99989.65;1687352;84;21503;-59
2022/04/25 05:47:44;;;;;;;6.78;6.17;;;;;;;36.11;26.38;99984.22;1687847;84;21255;-58
2022/04/25 05:52:59;;;;;;;6.08;5.42;;;;;;;36.69;25.83;99978.55;1687284;84;21333;-61
2022/04/25 05:55:28;;;;;;;7.12;6.50;;;;;;;36.75;25.32;99981.17;1687981;84;21470;-58
2022/04/25 05:57:56;;;;;;;7.75;6.95;;;;;;;36.85;25.28;99986.53;1687888;84;21064;-57
2022/04/25 06:00:24;;;;;;;7.37;6.70;;;;;;;36.60;24.89;99994.34;1688251;84;21275;-58
2022/04/25 06:02:52;;;;;;;7.00;6.08;;;;;;;35.95;25.41;99996.49;1687642;84;20999;-65
2022/04/25 06:05:21;;;;;;;7.37;6.62;;;;;;;35.72;26.27;99995.89;1688525;84;21420;-59
2022/04/25 06:07:50;;;;;;;7.42;6.45;;;;;;;35.74;26.22;99992.84;1691661;84;20931;-58
2022/04/25 06:10:19;;;;;;;7.55;6.55;;;;;;;35.81;26.43;99988.91;1691777;84;21150;-60
2022/04/25 06:12:50;;;;;;;6.67;5.92;;;;;;;35.91;26.19;99992.94;1691136;84;20995;-67
2022/04/25 06:15:20;;;;;;;6.47;5.40;;;;;;;36.08;25.97;99993.86;1691695;84;21472;-58
2022/04/25 06:17:48;;;;;;;6.95;5.80;;;;;;;36.22;26.10;99991.97;1691770;84;21027;-57
2022/04/25 06:20:16;;;;;;;7.12;5.97;;;;;;;36.61;25.54;99998.61;1691802;84;21528;-57
2022/04/25 06:22:59;;;;;;;7.72;6.20;;;;;;;36.78;24.74;100003.51;1690593;84;21529;-58
2022/04/25 06:25:30;;;;;;;6.75;5.10;;;;;;;36.76;24.94;100004.46;1691529;84;20957;-57
2022/04/25 06:27:58;;;;;;;7.58;5.35;;;;;;;36.72;25.09;100006.34;1691239;84;20947;-63
2022/04/25 06:30:31;;;;;;;6.28;5.15;;;;;;;36.72;24.91;100011.78;1691107;84;21481;-65
2022/04/25 06:33:00;;;;;;;7.92;5.33;;;;;;;36.93;24.59;100007.20;1691221;84;21792;-57
2022/04/25 06:35:28;;;;;;;5.78;4.37;;;;;;;37.19;24.59;100007.20;1691529;84;21038;-56
2022/04/25 06:37:55;;;;;;;8.35;5.12;;;;;;;37.48;23.91;100008.36;1691606;84;21489;-59
2022/04/25 06:40:23;;;;;;;7.00;5.37;;;;;;;37.68;23.84;100003.52;1690462;84;20948;-66
2022/04/25 06:42:55;;;;;;;6.55;4.75;;;;;;;38.01;23.65;100007.97;1691295;84;21010;-57
2022/04/25 06:45:23;;;;;;;6.60;4.40;;;;;;;38.05;23.53;100007.42;1691485;84;20947;-56
2022/04/25 06:47:53;;;;;;;6.87;4.72;;;;;;;37.87;23.11;100012.66;1692020;84;45200;-57
2022/04/25 06:50:20;;;;;;;7.65;5.72;;;;;;;37.54;23.60;100008.80;1691285;84;21305;-65
2022/04/25 06:52:47;;;;;;;7.05;4.87;;;;;;;37.61;23.38;100010.83;1691505;84;21460;-56
2022/04/25 06:55:15;;;;;;;6.10;4.20;;;;;;;37.50;23.53;100012.84;1691867;84;21318;-57
2022/04/25 06:57:42;;;;;;;8.10;4.60;;;;;;;37.40;23.72;100017.56;1692144;84;21059;-57
2022/04/25 07:00:11;;;;;;;6.10;4.42;;;;;;;37.32;23.48;100017.28;1691968;84;21042;-58
2022/04/25 07:02:40;;;;;;;6.92;5.17;;;;;;;37.01;23.42;100017.05;1691290;84;21056;-58
2022/04/25 07:05:08;;;;;;;6.78;5.10;;;;;;;36.61;23.98;100021.70;1663844;84;22090;-57
2022/04/25 07:07:37;;;;;;;6.70;4.83;;;;;;;36.44;23.87;100016.92;1690639;84;21083;-57
2022/04/25 07:10:07;;;;;;;6.17;4.40;;;;;;;36.22;24.39;100024.53;1691570;84;21106;-58
2022/04/25 07:12:35;;;;;;;6.35;4.40;;;;;;;36.19;23.84;100022.54;1691028;84;25409;-60
2022/04/25 07:15:04;;;;;;;4.90;4.40;;;;;;;35.73;23.56;100019.75;1691639;84;21396;-57
2022/04/25 07:17:33;;;;;;;7.05;5.50;;;;;;;35.26;24.13;100019.34;1692082;84;21106;-57
2022/04/25 07:20:00;;;;;;;7.12;4.40;;;;;;;35.29;25.04;100024.84;1692096;84;21050;-57
2022/04/25 07:29:02;;;;;;;6.83;4.97;;;;;;;35.80;24.48;100019.31;1691289;84;20912;-63
2022/04/25 07:30:38;;;;;;;6.12;4.50;;;;;;;35.97;23.60;100024.84;1654223;85;21060;-58
2022/04/25 07:33:06;;;;;;;6.78;4.67;;;;;;;36.24;23.46;100011.38;1672338;85;21033;-57
2022/04/25 07:35:36;;;;;;;7.28;4.95;;;;;;;36.34;23.35;100009.99;1672301;85;21095;-64
2022/04/25 07:38:04;;;;;;;6.70;4.40;;;;;;;36.43;23.79;100014.59;1672121;85;21068;-57
2022/04/25 07:40:33;;;;;;;7.70;5.08;;;;;;;36.58;23.59;100011.56;1673170;85;21826;-56
2022/04/25 07:43:00;;;;;;;7.17;5.20;;;;;;;36.78;23.28;100007.58;1673006;85;20997;-56
2022/04/25 07:45:29;;;;;;;6.75;4.65;;;;;;;36.70;23.17;100007.27;1672877;85;21000;-56
2022/04/25 07:47:56;;;;;;;6.12;4.87;;;;;;;36.81;23.36;100008.21;1672297;85;21075;-59
2022/04/25 07:50:25;;;;;;;5.17;4.50;;;;;;;36.90;23.47;100008.75;1673131;85;21524;-57
2022/04/25 07:52:53;;;;;;;5.35;4.55;;;;;;;37.26;23.14;100005.94;1672765;85;21170;-56
2022/04/25 07:55:22;;;;;;;7.45;5.22;;;;;;;37.66;22.79;100005.84;1672852;85;21044;-57
2022/04/25 07:57:51;;;;;;;5.62;4.25;;;;;;;37.86;22.08;100004.30;1671996;85;20980;-59
2022/04/25 08:00:20;;;;;;;6.47;4.85;;;;;;;37.85;21.56;100002.16;1672989;85;21809;-58
2022/04/25 08:02:50;;;;;;;4.97;3.60;;;;;;;38.16;21.58;99998.19;1672646;85;21001;-59
2022/04/25 08:05:18;;;;;;;5.03;4.00;;;;;;;38.53;21.21;99996.53;1672763;85;21230;-58
2022/04/25 08:07:45;;;;;;;5.45;3.83;;;;;;;38.80;20.75;99995.20;1666819;85;21015;-66
2022/04/25 08:10:13;;;;;;;5.47;4.17;;;;;;;38.72;20.06;99984.59;1660723;86;21555;-57
2022/04/25 08:18:14;;;;;;;6.28;3.98;;;;;;;38.28;20.44;99981.36;1660307;86;21520;-58
2022/04/25 08:20:42;;;;;;;6.10;4.50;;;;;;;38.21;20.72;99976.64;1660220;86;21070;-58
2022/04/25 08:23:11;;;;;;;5.28;4.22;;;;;;;38.29;20.29;99973.39;1660297;86;21594;-66
2022/04/25 08:25:41;;;;;;;5.70;3.83;;;;;;;38.03;20.65;99976.48;1659646;85;21391;-57
2022/04/25 08:28:10;;;;;;;8.28;4.85;;;;;;;37.66;20.99;99979.23;1660451;86;21943;-58
2022/04/25 08:30:38;;;;;;;6.50;4.92;;;;;;;37.44;20.82;99976.27;1660021;86;21153;-58
2022/04/25 08:33:07;;;;;;;5.30;4.10;;;;;;;36.89;21.82;99971.84;1660686;86;21078;-67
2022/04/25 08:35:35;;;;;;;6.03;4.75;;;;;;;36.96;22.21;99972.55;1659743;86;21569;-64
2022/04/25 08:38:05;;;;;;;6.55;3.87;;;;;;;37.21;21.64;99968.80;1660342;86;21084;-57
2022/04/25 08:40:33;;;;;;;7.10;4.75;;;;;;;37.34;21.44;99976.13;1659880;86;21125;-58
2022/04/25 08:43:03;;;;;;;5.55;4.53;;;;;;;37.45;21.56;99975.69;1659699;86;21932;-66
2022/04/25 08:45:32;;;;;;;6.42;4.20;;;;;;;37.55;20.80;99971.54;1659860;86;21631;-60
2022/04/25 08:48:00;;;;;;;5.83;4.53;;;;;;;37.28;20.62;99972.16;1660292;86;21355;-58
2022/04/25 08:50:30;;;;;;;6.25;4.75;;;;;;;37.07;21.10;99972.11;1659979;86;21003;-58
2022/04/25 08:52:57;;;;;;;7.40;4.83;;;;;;;37.16;21.30;99968.52;1660015;86;20963;-65
2022/04/25 08:55:29;;;;;;;6.47;4.62;;;;;;;37.30;21.61;99972.58;1660062;86;21081;-60
2022/04/25 08:57:58;;;;;;;4.95;3.95;;;;;;;37.71;20.98;99963.34;1659946;86;20900;-58
2022/04/25 09:00:25;;;;;;;5.33;4.17;;;;;;;37.85;20.02;99971.45;1660116;86;21043;-59
2022/04/25 09:02:55;;;;;;;5.17;3.67;;;;;;;37.50;20.14;99967.97;1660060;86;21011;-58
2022/04/25 09:05:22;;;;;;;5.17;3.87;;;;;;;37.27;19.82;99961.86;1659437;86;21137;-58
2022/04/25 09:07:49;;;;;;;6.28;3.77;;;;;;;36.82;20.18;99958.16;1659502;85;21298;-57
2022/04/25 09:10:18;;;;;;;6.25;4.30;;;;;;;36.65;20.93;99950.56;1661960;86;21137;-57
2022/04/25 09:12:47;;;;;;;6.97;4.55;;;;;;;36.93;20.88;99953.66;1630536;87;21087;-57
2022/04/25 09:15:21;;;;;;;6.15;4.85;;;;;;;37.30;21.06;99957.05;1692302;84;20952;-62
2022/04/25 09:17:50;;;;;;;6.10;4.15;;;;;;;37.41;20.79;99951.19;1692093;84;21957;-58
2022/04/25 09:20:19;;;;;;;5.75;4.40;;;;;;;37.52;20.64;99951.30;1692715;84;21351;-59
2022/04/25 09:22:48;;;;;;;6.70;4.50;;;;;;;37.72;20.91;99947.22;1688029;84;20968;-59
2022/04/25 09:25:17;;;;;;;5.15;4.05;;;;;;;37.79;20.35;99936.98;1691978;84;21093;-59
2022/04/25 09:27:44;;;;;;;5.67;4.47;;;;;;;37.76;20.30;99933.66;1692277;84;21149;-65
2022/04/25 09:30:21;;;;;;;6.80;4.45;;;;;;;37.58;19.98;99938.14;1692855;84;21460;-58
2022/04/25 09:32:53;;;;;;;6.12;4.50;;;;;;;36.81;20.35;99931.38;1692610;84;20900;-56
2022/04/25 09:35:37;;;;;;;6.55;4.78;;;;;;;36.38;20.92;99932.89;1691803;84;26927;-66
2022/04/25 09:38:05;;;;;;;5.15;4.05;;;;;;;36.25;21.68;99931.52;1693092;84;21118;-58
2022/04/25 09:40:33;;;;;;;6.85;4.70;;;;;;;36.08;21.48;99930.10;1692510;84;20916;-57
2022/04/25 09:43:11;;;;;;;5.72;4.08;;;;;;;36.08;21.48;99930.10;1692661;84;21122;-57
2022/04/25 09:45:44;;;;;;;6.20;4.60;;;;;;;35.37;21.81;99925.50;1692778;84;21163;-56
2022/04/25 09:48:15;;;;;;;5.00;4.37;;;;;;;34.66;22.11;99926.13;1692403;84;21079;-57
2022/04/25 09:50:44;;;;;;;6.35;4.53;;;;;;;34.55;23.05;99921.86;1692597;84;21505;-57
2022/04/25 09:53:12;;;;;;;5.08;3.75;;;;;;;34.84;23.11;99925.17;1692133;84;21068;-63
2022/04/25 09:55:43;;;;;;;4.60;3.90;;;;;;;35.24;23.40;99926.80;1692683;84;21141;-58
2022/04/25 09:58:19;;;;;;;5.65;4.37;;;;;;;35.91;22.25;99916.41;1691785;84;21177;-60
2022/04/25 10:00:49;;;;;;;7.45;4.25;;;;;;;36.33;22.00;99916.13;1692307;84;21046;-66
2022/04/25 10:03:17;;;;;;;5.92;4.33;;;;;;;36.08;22.17;99914.40;1692398;84;20988;-56
2022/04/25 10:05:48;;;;;;;5.40;4.87;;;;;;;35.86;21.90;99907.23;1692704;84;21039;-57
2022/04/25 10:08:18;;;;;;;8.00;5.62;;;;;;;35.30;22.33;99918.58;1690928;84;21461;-61
2022/04/25 10:10:51;;;;;;;7.40;5.00;;;;;;;34.72;22.79;99907.13;1687219;84;21767;-59
2022/04/25 10:13:18;;;;;;;6.45;4.58;;;;;;;34.22;23.36;99908.69;1688263;84;21132;-56
2022/04/25 10:15:46;;;;;;;5.42;4.40;;;;;;;34.00;23.48;99912.80;1688447;84;21000;-56
2022/04/25 10:18:15;;;;;;;5.90;4.50;;;;;;;33.78;23.84;99903.90;1687215;84;21021;-61
2022/04/25 10:20:46;;;;;;;6.37;4.08;;;;;;;33.83;24.43;99907.69;1687393;84;21437;-57
2022/04/25 10:23:16;;;;;;;5.65;3.92;;;;;;;34.11;24.00;99903.02;1688250;84;21183;-56
2022/04/25 10:25:50;;;;;;;5.83;4.17;;;;;;;34.30;23.67;99900.17;1688448;84;20924;-56
2022/04/25 10:28:45;;;;;;;6.58;4.20;;;;;;;34.65;23.46;99896.72;1687088;84;21541;-68
2022/04/25 10:31:26;;;;;;;6.50;4.03;;;;;;;34.93;22.36;99902.75;1687833;84;20994;-56
2022/04/25 10:33:58;;;;;;;5.35;3.90;;;;;;;35.40;22.31;99901.75;1687194;84;20972;-60
2022/04/25 10:36:44;;;;;;;6.70;4.22;;;;;;;35.64;22.09;99897.94;1688415;84;22517;-56
2022/04/25 10:39:31;;;;;;;5.87;3.95;;;;;;;35.90;21.19;99898.58;1688127;84;21011;-67
2022/04/25 10:44:53;;;;;;;6.17;4.08;;;;;;;35.91;21.17;99897.42;1688207;84;21046;-60
2022/04/25 10:47:23;;;;;;;6.70;4.00;;;;;;;35.97;20.62;99892.48;1687787;84;21629;-59
2022/04/25 10:50:05;;;;;;;6.60;4.00;;;;;;;35.55;20.74;99885.20;1688285;84;21022;-58
2022/04/25 10:52:42;;;;;;;6.92;3.87;;;;;;;35.19;20.95;99889.14;1688329;84;20935;-67
2022/04/25 10:55:26;;;;;;;4.62;3.87;;;;;;;35.11;21.62;99882.80;1687985;84;21444;-58
2022/04/25 10:58:11;;;;;;;6.28;3.58;;;;;;;35.22;21.91;99883.01;1688080;84;21067;-59
2022/04/25 11:00:44;;;;;;;4.35;3.75;;;;;;;35.84;21.62;99867.49;1687402;84;21765;-59
2022/04/25 11:03:15;;;;;;;4.45;3.70;;;;;;;36.30;20.83;99862.02;1688447;84;22220;-56
2022/04/25 11:05:50;;;;;;;5.33;3.70;;;;;;;36.58;20.71;99867.06;1688267;84;21007;-56
2022/04/25 11:08:23;;;;;;;5.70;3.45;;;;;;;36.69;20.73;99859.06;1683116;83;21568;-64
2022/04/25 11:11:09;;;;;;;5.87;4.30;;;;;;;36.92;20.47;99853.52;1666839;86;21359;-56
2022/04/25 11:14:01;;;;;;;5.75;3.80;;;;;;;36.75;20.19;99857.59;1667257;86;21579;-61
2022/04/25 11:16:25;;;;;;;6.65;4.00;;;;;;;36.50;20.31;99856.69;1659711;86;21383;-58
2022/04/25 11:19:13;;;;;;;4.95;3.35;;;;;;;36.30;20.42;99847.86;1618057;86;21131;-58
2022/04/25 11:21:49;;;;;;;4.75;3.22;;;;;;;36.03;20.05;99853.09;1666489;86;21073;-63
2022/04/25 11:24:35;;;;;;;4.85;3.30;;;;;;;35.67;20.08;99845.70;1667507;86;21510;-57
2022/04/25 11:27:05;;;;;;;5.05;3.22;;;;;;;35.80;20.56;99840.86;1667268;86;21046;-57
2022/04/25 11:29:34;;;;;;;5.62;3.47;;;;;;;35.54;20.45;99838.91;1666933;86;21868;-57
2022/04/25 11:32:32;;;;;;;5.22;3.58;;;;;;;35.22;21.13;99835.59;1616864;86;21046;-58
2022/04/25 11:35:01;;;;;;;6.28;3.47;;;;;;;35.50;20.71;99838.07;1659786;86;20983;-60
2022/04/25 11:37:32;;;;;;;5.62;3.77;;;;;;;35.27;20.53;99832.03;1660474;86;21368;-61
2022/04/25 11:40:05;;;;;;;5.87;3.60;;;;;;;35.24;20.29;99824.62;1660279;86;20998;-58
2022/04/25 11:42:35;;;;;;;4.83;3.65;;;;;;;34.86;20.85;99828.13;1659368;86;21074;-56
2022/04/25 11:45:04;;;;;;;4.35;3.22;;;;;;;34.83;21.02;99828.84;1659573;86;21126;-58
2022/04/25 11:47:33;;;;;;;6.17;3.30;;;;;;;34.97;19.72;99825.63;1667318;86;21582;-58
2022/04/25 11:50:03;;;;;;;5.45;3.08;;;;;;;34.85;19.74;99822.48;1667181;86;21627;-57
2022/04/25 11:52:31;;;;;;;6.03;3.77;;;;;;;35.11;20.02;99819.14;1666772;86;21007;-60
2022/04/25 11:54:58;;;;;;;5.10;3.15;;;;;;;34.90;21.07;99821.43;1666523;86;22021;-58
2022/04/25 11:57:26;;;;;;;4.85;3.30;;;;;;;34.92;21.04;99815.06;1666941;85;21546;-58
2022/04/25 12:00:13;;;;;;;5.65;3.70;;;;;;;35.06;20.85;99816.16;1667571;86;21054;-56
2022/04/25 12:02:40;;;;;;;5.00;3.45;;;;;;;35.14;20.23;99808.16;1666506;86;21022;-60
2022/04/25 12:05:08;;;;;;;3.85;2.98;;;;;;;35.27;20.08;99812.25;1660569;86;21145;-57